createdAt,value
2019-05-23T00:01:02.701Z,6.80
2019-05-23T00:03:58.436Z,8.93
2019-05-23T00:06:44.332Z,9.17
2019-05-23T00:09:30.522Z,6.90
2019-05-23T00:12:05.428Z,8.20
2019-05-23T00:14:52.469Z,7.17
2019-05-23T00:17:22.128Z,9.03
2019-05-23T00:19:49.704Z,6.67
2019-05-23T00:22:18.994Z,6.70
2019-05-23T00:24:47.566Z,8.33
2019-05-23T00:27:14.728Z,8.27
2019-05-23T00:29:43.991Z,7.57
2019-05-23T00:32:27.735Z,7.17
2019-05-23T00:34:55.513Z,8.53
2019-05-23T00:37:23.568Z,7.47
2019-05-23T00:39:52.471Z,7.63
2019-05-23T00:42:21.159Z,8.27
2019-05-23T00:44:48.238Z,9.37
2019-05-23T00:47:16.429Z,7.60
2019-05-23T00:49:46.227Z,10.07
2019-05-23T00:52:14.207Z,9.77
2019-05-23T00:54:42.876Z,8.00
2019-05-23T00:57:10.153Z,7.73
2019-05-23T00:59:38.644Z,8.00
2019-05-23T01:02:07.168Z,8.87
2019-05-23T01:04:36.713Z,7.17
2019-05-23T01:07:06.293Z,9.13
2019-05-23T01:09:34.657Z,7.83
2019-05-23T01:12:04.458Z,7.43
2019-05-23T01:14:32.029Z,8.50
2019-05-23T01:17:01.038Z,9.47
2019-05-23T01:19:28.249Z,8.27
2019-05-23T01:21:57.643Z,8.73
2019-05-23T01:24:28.003Z,7.20
2019-05-23T01:26:56.996Z,7.80
2019-05-23T01:29:26.068Z,7.87
2019-05-23T01:31:57.897Z,7.90
2019-05-23T01:34:26.812Z,7.37
2019-05-23T01:36:55.078Z,8.63
2019-05-23T01:39:23.364Z,8.07
2019-05-23T01:41:50.539Z,7.30
2019-05-23T01:44:17.806Z,8.17
2019-05-23T01:46:46.175Z,8.60
2019-05-23T01:49:14.843Z,7.67
2019-05-23T01:51:43.235Z,8.10
2019-05-23T01:54:11.018Z,9.80
2019-05-23T01:56:38.905Z,8.57
2019-05-23T01:59:06.107Z,7.97
2019-05-23T02:01:34.253Z,9.80
2019-05-23T02:04:01.545Z,8.17
2019-05-23T02:06:28.832Z,10.40
2019-05-23T02:08:55.958Z,8.17
2019-05-23T02:11:24.041Z,7.90
2019-05-23T02:13:51.301Z,8.93
2019-05-23T02:16:20.568Z,9.77
2019-05-23T02:18:48.415Z,8.93
2019-05-23T02:21:18.793Z,8.30
2019-05-23T02:23:46.658Z,9.70
2019-05-23T02:26:15.711Z,8.90
2019-05-23T02:28:45.228Z,8.83
2019-05-23T02:31:13.490Z,8.93
2019-05-23T02:33:40.868Z,9.17
2019-05-23T02:36:08.037Z,10.33
2019-05-23T02:39:10.964Z,9.33
2019-05-23T02:41:45.393Z,10.30
2019-05-23T02:44:16.168Z,9.73
2019-05-23T02:47:11.848Z,9.50
2019-05-23T02:49:39.911Z,9.97
2019-05-23T02:52:27.414Z,9.80
2019-05-23T02:54:55.230Z,12.33
2019-05-23T02:57:24.692Z,11.00
2019-05-23T02:59:57.436Z,11.33
2019-05-23T03:02:47.169Z,10.07
2019-05-23T03:05:16.884Z,10.27
2019-05-23T03:07:44.524Z,13.73
2019-05-23T03:10:13.189Z,10.10
2019-05-23T03:12:43.077Z,11.37
2019-05-23T03:15:12.491Z,11.80
2019-05-23T03:17:44.553Z,10.23
2019-05-23T03:20:11.937Z,12.27
2019-05-23T03:22:46.175Z,11.03
2019-05-23T03:25:59.761Z,11.60
2019-05-23T03:28:29.652Z,12.80
2019-05-23T03:31:25.343Z,12.00
2019-05-23T03:33:30.797Z,12.00
2019-05-23T03:35:58.617Z,11.57
2019-05-23T03:38:27.201Z,14.83
2019-05-23T03:40:54.763Z,12.57
2019-05-23T03:43:22.664Z,11.90
2019-05-23T03:45:52.809Z,14.30
2019-05-23T03:48:20.835Z,14.80
2019-05-23T03:50:49.916Z,14.20
2019-05-23T03:53:18.586Z,13.07
2019-05-23T03:55:47.664Z,13.87
2019-05-23T03:58:16.766Z,17.60
2019-05-23T04:00:50.782Z,12.77
2019-05-23T04:03:18.641Z,12.63
2019-05-23T04:05:47.334Z,13.03
2019-05-23T04:08:15.621Z,13.23
2019-05-23T04:10:43.077Z,16.80
2019-05-23T04:13:10.925Z,14.80
2019-05-23T04:15:38.419Z,13.97
2019-05-23T04:18:05.793Z,15.60
2019-05-23T04:20:33.268Z,15.17
2019-05-23T04:23:02.004Z,17.77
2019-05-23T04:25:29.477Z,20.00
2019-05-23T04:27:57.776Z,15.83
2019-05-23T04:30:26.327Z,15.30
2019-05-23T04:32:53.773Z,16.83
2019-05-23T04:35:20.857Z,16.60
2019-05-23T04:37:48.546Z,18.43
2019-05-23T04:40:17.929Z,15.20
2019-05-23T04:42:45.005Z,16.27
2019-05-23T04:45:13.571Z,17.40
2019-05-23T04:47:40.771Z,16.13
2019-05-23T04:50:11.853Z,15.63
2019-05-23T04:52:39.717Z,17.97
2019-05-23T04:55:07.930Z,18.73
2019-05-23T04:57:35.804Z,17.97
2019-05-23T05:00:04.082Z,17.40
2019-05-23T05:02:31.350Z,16.97
2019-05-23T05:05:00.220Z,18.00
2019-05-23T05:07:27.481Z,19.13
2019-05-23T05:09:54.744Z,18.90
2019-05-23T05:12:22.616Z,18.60
2019-05-23T05:14:50.845Z,18.47
2019-05-23T05:17:18.428Z,20.17
2019-05-23T05:19:45.816Z,19.00
2019-05-23T05:22:14.188Z,18.13
2019-05-23T05:24:41.264Z,17.47
2019-05-23T05:27:08.644Z,17.97
2019-05-23T05:29:35.728Z,17.73
2019-05-23T05:32:04.191Z,21.77
2019-05-23T05:34:31.911Z,20.30
2019-05-23T05:36:59.692Z,18.73
2019-05-23T05:39:26.981Z,17.83
2019-05-23T05:41:54.546Z,16.87
2019-05-23T05:44:21.705Z,16.90
2019-05-23T05:46:51.161Z,16.93
2019-05-23T05:49:18.695Z,17.70
2019-05-23T05:51:48.080Z,17.10
2019-05-23T05:54:15.650Z,17.27
2019-05-23T05:56:42.839Z,17.23
2019-05-23T05:59:11.833Z,16.07
2019-05-23T06:01:40.013Z,17.37
2019-05-23T06:04:08.313Z,16.07
2019-05-23T06:06:40.588Z,16.13
2019-05-23T06:09:15.147Z,20.57
2019-05-23T06:11:42.918Z,17.80
2019-05-23T06:14:10.785Z,16.60
2019-05-23T06:16:38.170Z,16.13
2019-05-23T06:19:05.539Z,16.70
2019-05-23T06:21:34.004Z,15.90
2019-05-23T06:24:01.754Z,19.97
2019-05-23T06:26:29.349Z,15.77
2019-05-23T06:28:56.501Z,16.73
2019-05-23T06:31:23.993Z,19.60
2019-05-23T06:33:51.999Z,15.77
2019-05-23T06:36:19.182Z,18.47
2019-05-23T06:38:46.778Z,18.33
2019-05-23T06:41:14.032Z,16.83
2019-05-23T06:43:41.102Z,16.00
2019-05-23T06:46:08.977Z,19.30
2019-05-23T06:48:37.257Z,18.73
2019-05-23T06:51:04.673Z,14.70
2019-05-23T06:53:31.895Z,13.30
2019-05-23T06:55:59.081Z,13.60
2019-05-23T06:58:28.303Z,15.27
2019-05-23T07:00:55.628Z,13.67
2019-05-23T07:03:39.858Z,13.53
2019-05-23T07:05:52.657Z,12.87
2019-05-23T07:08:25.281Z,16.13
2019-05-23T07:10:51.461Z,13.70
2019-05-23T07:13:19.204Z,11.37
2019-05-23T07:15:46.360Z,13.03
2019-05-23T07:18:13.432Z,11.87
2019-05-23T07:20:41.689Z,10.83
2019-05-23T07:23:11.012Z,11.63
2019-05-23T07:25:38.276Z,13.77
2019-05-23T07:28:05.345Z,13.27
2019-05-23T07:30:32.409Z,9.97
2019-05-23T07:32:59.665Z,8.77
2019-05-23T07:35:26.857Z,8.40
2019-05-23T07:37:54.477Z,7.23
2019-05-23T07:40:24.885Z,7.07
2019-05-23T07:42:52.151Z,6.37
2019-05-23T07:45:23.770Z,6.50
2019-05-23T07:47:51.233Z,8.40
2019-05-23T07:50:20.311Z,6.93
2019-05-23T07:52:47.876Z,4.83
2019-05-23T07:55:24.648Z,4.07
2019-05-23T07:57:51.903Z,7.03
2019-05-23T08:00:23.259Z,5.83
2019-05-23T08:02:51.130Z,6.47
2019-05-23T08:05:19.809Z,6.80
2019-05-23T08:07:47.429Z,9.17
2019-05-23T08:10:30.877Z,10.43
2019-05-23T08:12:44.785Z,11.83
2019-05-23T08:15:13.038Z,10.90
2019-05-23T08:17:40.245Z,11.73
2019-05-23T08:20:10.335Z,11.50
2019-05-23T08:22:37.493Z,10.37
2019-05-23T08:25:04.579Z,16.10
2019-05-23T08:27:33.653Z,11.43
2019-05-23T08:30:02.355Z,13.87
2019-05-23T08:32:29.815Z,15.87
2019-05-23T08:34:56.864Z,14.40
2019-05-23T08:37:23.938Z,14.70
2019-05-23T08:39:51.320Z,12.37
2019-05-23T08:42:19.992Z,15.33
2019-05-23T08:44:47.173Z,13.53
2019-05-23T08:47:14.524Z,14.53
2019-05-23T08:49:41.692Z,14.67
2019-05-23T08:52:08.851Z,13.27
2019-05-23T08:54:36.813Z,11.13
2019-05-23T08:57:06.369Z,8.90
2019-05-23T08:59:33.536Z,11.00
2019-05-23T09:02:01.278Z,11.00
2019-05-23T09:04:30.403Z,10.37
2019-05-23T09:06:57.989Z,7.90
2019-05-23T09:09:29.923Z,10.33
2019-05-23T09:11:56.459Z,8.63
2019-05-23T09:14:24.420Z,8.47
2019-05-23T09:16:51.908Z,6.97
2019-05-23T09:19:18.973Z,12.60
2019-05-23T09:21:46.548Z,8.93
2019-05-23T09:24:13.604Z,6.80
2019-05-23T09:26:40.981Z,7.00
2019-05-23T09:29:08.369Z,6.53
2019-05-23T09:31:35.656Z,7.87
2019-05-23T09:34:02.831Z,7.47
2019-05-23T09:36:31.015Z,9.97
2019-05-23T09:38:58.077Z,6.23
2019-05-23T09:41:45.219Z,8.47
2019-05-23T09:44:12.558Z,7.63
2019-05-23T09:46:39.915Z,8.07
2019-05-23T09:49:10.897Z,5.90
2019-05-23T09:51:36.205Z,6.87
2019-05-23T09:54:03.508Z,8.30
2019-05-23T09:56:31.556Z,9.30
2019-05-23T09:58:58.934Z,6.57
2019-05-23T10:01:26.226Z,5.17
2019-05-23T10:03:54.626Z,8.20
2019-05-23T10:06:21.768Z,5.27
2019-05-23T10:08:48.923Z,5.90
2019-05-23T10:11:16.088Z,6.27
2019-05-23T10:13:43.132Z,8.47
2019-05-23T10:16:10.688Z,7.40
2019-05-23T10:18:38.684Z,7.13
2019-05-23T10:21:05.936Z,6.97
2019-05-23T10:23:32.988Z,6.87
2019-05-23T10:26:01.668Z,6.70
2019-05-23T10:28:28.864Z,6.10
2019-05-23T10:30:55.921Z,6.80
2019-05-23T10:33:55.901Z,7.80
2019-05-23T10:36:23.064Z,4.53
2019-05-23T10:38:50.319Z,5.83
2019-05-23T10:41:17.608Z,5.20
2019-05-23T10:43:44.743Z,6.87
2019-05-23T10:46:12.306Z,6.07
2019-05-23T10:48:40.232Z,5.33
2019-05-23T10:51:07.481Z,5.50
2019-05-23T10:53:34.524Z,5.00
2019-05-23T10:56:02.784Z,6.50
2019-05-23T10:58:30.355Z,5.00
2019-05-23T11:00:58.158Z,5.33
2019-05-23T11:03:26.223Z,7.17
2019-05-23T11:05:53.381Z,5.93
2019-05-23T11:08:27.233Z,4.30
2019-05-23T11:10:50.365Z,4.53
2019-05-23T11:13:17.838Z,4.37
2019-05-23T11:15:45.797Z,6.17
2019-05-23T11:18:13.746Z,4.80
2019-05-23T11:20:42.411Z,6.13
2019-05-23T11:23:11.056Z,7.37
2019-05-23T11:25:38.436Z,7.30
2019-05-23T11:28:06.398Z,4.27
2019-05-23T11:30:44.373Z,4.57
2019-05-23T11:33:13.220Z,5.87
2019-05-23T11:35:40.783Z,6.57
2019-05-23T11:38:07.888Z,12.33
2019-05-23T11:40:35.220Z,6.03
2019-05-23T11:43:02.374Z,5.43
2019-05-23T11:45:32.591Z,3.90
2019-05-23T11:48:00.048Z,7.63
2019-05-23T11:50:29.111Z,4.47
2019-05-23T11:52:56.334Z,8.43
2019-05-23T11:55:23.727Z,6.80
2019-05-23T11:57:51.369Z,8.03
2019-05-23T12:00:28.922Z,5.07
2019-05-23T12:02:56.872Z,4.80
2019-05-23T12:05:26.977Z,4.30
2019-05-23T12:07:54.700Z,5.17
2019-05-23T12:10:22.263Z,4.97
2019-05-23T12:12:49.313Z,6.43
2019-05-23T12:15:23.410Z,4.37
2019-05-23T12:17:50.808Z,4.30
2019-05-23T12:20:19.218Z,5.30
2019-05-23T12:22:46.491Z,5.40
2019-05-23T12:25:22.399Z,3.53
2019-05-23T12:27:44.732Z,2.50
2019-05-23T12:30:15.591Z,3.10
2019-05-23T12:32:42.947Z,2.43
2019-05-23T12:35:11.913Z,3.77
2019-05-23T12:37:39.763Z,3.73
2019-05-23T12:40:08.221Z,3.03
2019-05-23T12:42:35.472Z,3.67
2019-05-23T12:45:04.422Z,3.57
2019-05-23T12:47:45.141Z,3.10
2019-05-23T12:50:15.560Z,4.83
2019-05-23T12:52:42.922Z,3.57
2019-05-23T12:55:10.281Z,3.20
2019-05-23T12:57:37.444Z,4.97
2019-05-23T13:00:07.014Z,3.90
2019-05-23T13:02:34.897Z,3.77
2019-05-23T13:05:02.225Z,5.43
2019-05-23T13:07:36.196Z,5.07
2019-05-23T13:09:59.144Z,4.67
2019-05-23T13:12:26.316Z,4.72
2019-05-23T13:14:58.451Z,4.67
2019-05-23T13:17:22.774Z,5.53
2019-05-23T13:19:49.839Z,3.37
2019-05-23T13:22:17.388Z,4.13
2019-05-23T13:25:16.776Z,6.43
2019-05-23T13:27:44.235Z,5.00
2019-05-23T13:30:15.788Z,5.03
2019-05-23T13:32:43.680Z,4.23
2019-05-23T13:35:11.541Z,5.03
2019-05-23T13:37:53.191Z,5.60
2019-05-23T13:40:08.643Z,4.47
2019-05-23T13:42:36.513Z,4.73
2019-05-23T13:52:25.028Z,4.40
2019-05-23T13:57:19.499Z,5.47
2019-05-23T13:59:46.882Z,5.97
2019-05-23T14:04:41.358Z,5.20
2019-05-23T14:07:10.132Z,5.13
2019-05-23T14:09:38.004Z,9.40
2019-05-23T14:12:20.689Z,7.77
2019-05-23T14:14:34.306Z,8.57
2019-05-23T14:17:21.231Z,9.13
2019-05-23T14:19:49.208Z,6.50
2019-05-23T14:22:16.452Z,7.10
2019-05-23T14:24:43.772Z,7.25
2019-05-23T14:27:25.360Z,9.03
2019-05-23T14:29:52.696Z,8.77
2019-05-23T14:32:32.580Z,6.03
2019-05-23T14:35:00.624Z,9.27
2019-05-23T14:37:33.848Z,6.63
2019-05-23T14:40:06.115Z,5.50
2019-05-23T14:42:53.214Z,7.97
2019-05-23T14:45:44.684Z,6.40
2019-05-23T14:48:34.382Z,7.23
2019-05-23T14:51:22.620Z,5.70
2019-05-23T14:53:53.077Z,6.13
2019-05-23T14:56:21.350Z,6.80
2019-05-23T14:58:49.196Z,5.37
2019-05-23T15:01:17.877Z,8.03
2019-05-23T15:03:45.684Z,6.50
2019-05-23T15:06:12.748Z,6.00
2019-05-23T15:08:50.546Z,4.40
2019-05-23T15:11:09.260Z,5.70
2019-05-23T15:13:36.329Z,5.00
2019-05-23T15:16:04.744Z,5.00
2019-05-23T15:18:31.784Z,4.30
2019-05-23T15:20:59.536Z,6.53
2019-05-23T15:23:26.792Z,5.70
2019-05-23T15:25:54.363Z,3.90
2019-05-23T15:28:21.532Z,3.87
2019-05-23T15:30:48.595Z,5.57
2019-05-23T15:33:15.648Z,5.83
2019-05-23T15:35:43.499Z,4.27
2019-05-23T15:38:10.567Z,5.83
2019-05-23T15:40:37.962Z,5.27
2019-05-23T15:43:09.343Z,4.97
2019-05-23T15:45:34.356Z,6.37
2019-05-23T15:48:01.425Z,4.47
2019-05-23T15:50:34.747Z,5.27
2019-05-23T15:53:24.579Z,4.27
2019-05-23T15:56:28.066Z,5.43
2019-05-23T15:58:59.072Z,5.00
2019-05-23T16:01:45.984Z,5.33
2019-05-23T16:04:14.975Z,4.60
2019-05-23T16:06:42.762Z,3.80
2019-05-23T16:09:27.785Z,4.20
2019-05-23T16:11:40.389Z,5.10
2019-05-23T16:14:07.549Z,5.83
2019-05-23T16:16:34.627Z,4.80
2019-05-23T16:19:21.328Z,4.77
2019-05-23T16:21:48.597Z,4.33
2019-05-23T16:24:15.864Z,6.30
2019-05-23T16:26:43.837Z,6.37
2019-05-23T16:29:13.452Z,4.37
2019-05-23T16:31:41.019Z,4.00
2019-05-23T16:34:08.164Z,5.03
2019-05-23T16:36:35.509Z,5.23
2019-05-23T16:39:06.212Z,3.03
2019-05-23T16:41:33.289Z,3.03
2019-05-23T16:44:00.349Z,2.87
2019-05-23T16:46:28.208Z,3.63
2019-05-23T16:48:55.361Z,3.60
2019-05-23T16:51:22.506Z,3.13
2019-05-23T16:53:50.865Z,4.90
2019-05-23T16:56:23.692Z,2.70
2019-05-23T16:59:02.903Z,3.80
2019-05-23T17:01:53.167Z,3.27
2019-05-23T17:04:13.621Z,3.30
2019-05-23T17:07:00.335Z,3.27
2019-05-23T17:10:08.564Z,2.63
2019-05-23T17:12:40.220Z,3.77
2019-05-23T17:15:35.108Z,3.23
2019-05-23T17:18:30.697Z,3.53
2019-05-23T17:21:13.104Z,3.47
2019-05-23T17:24:02.581Z,2.80
2019-05-23T17:26:39.265Z,3.97
2019-05-23T17:29:14.028Z,4.00
2019-05-23T17:31:43.087Z,6.50
2019-05-23T17:34:10.956Z,4.43
2019-05-23T17:36:39.356Z,4.20
2019-05-23T17:39:09.557Z,3.17
2019-05-23T17:41:36.952Z,2.90
2019-05-23T17:44:04.309Z,6.10
2019-05-23T17:46:31.965Z,4.67
2019-05-23T17:48:59.120Z,4.47
2019-05-23T17:51:26.501Z,3.83
2019-05-23T17:53:53.560Z,7.53
2019-05-23T17:56:20.618Z,2.93
2019-05-23T17:58:47.956Z,4.43
2019-05-23T18:01:15.260Z,3.10
2019-05-23T18:03:42.919Z,2.90
2019-05-23T18:06:10.116Z,2.63
2019-05-23T18:08:38.685Z,2.63
2019-05-23T18:11:06.039Z,3.93
2019-05-23T18:13:33.205Z,6.30
2019-05-23T18:16:01.004Z,4.33
2019-05-23T18:18:28.276Z,4.20
2019-05-23T18:20:55.861Z,4.00
2019-05-23T18:23:23.477Z,3.63
2019-05-23T18:25:50.751Z,3.60
2019-05-23T18:28:18.712Z,2.87
2019-05-23T18:30:49.676Z,3.87
2019-05-23T18:33:18.665Z,3.50
2019-05-23T18:35:47.241Z,2.70
2019-05-23T18:38:15.124Z,4.90
2019-05-23T18:40:42.388Z,3.80
2019-05-23T18:43:09.684Z,3.07
2019-05-23T18:45:37.463Z,3.73
2019-05-23T18:48:05.323Z,3.07
2019-05-23T18:50:34.411Z,2.23
2019-05-23T18:53:02.683Z,2.47
2019-05-23T18:55:30.353Z,2.87
2019-05-23T18:57:57.616Z,2.87
2019-05-23T19:00:59.733Z,4.53
2019-05-23T19:03:27.932Z,3.00
2019-05-23T19:05:55.311Z,4.30
2019-05-23T19:08:22.473Z,3.97
2019-05-23T19:10:49.673Z,3.03
2019-05-23T19:13:16.932Z,3.87
2019-05-23T19:15:44.371Z,4.67
2019-05-23T19:18:11.737Z,6.33
2019-05-23T19:20:41.418Z,8.57
2019-05-23T19:23:09.205Z,7.47
2019-05-23T19:25:36.976Z,4.60
2019-05-23T19:28:05.132Z,5.63
2019-05-23T19:30:33.883Z,7.43
2019-05-23T19:33:01.404Z,5.27
2019-05-23T19:35:29.268Z,5.47
2019-05-23T19:37:56.448Z,5.37
2019-05-23T19:40:26.156Z,3.00
2019-05-23T19:42:53.205Z,3.13
2019-05-23T19:45:20.468Z,3.30
2019-05-23T19:47:47.564Z,3.03
2019-05-23T19:50:14.932Z,3.20
2019-05-23T19:52:43.129Z,4.03
2019-05-23T19:55:10.685Z,2.70
2019-05-23T19:57:39.235Z,3.27
2019-05-23T20:00:09.188Z,3.67
2019-05-23T20:02:43.200Z,3.30
2019-05-23T20:05:18.764Z,3.57
2019-05-23T20:07:45.941Z,3.27
2019-05-23T20:10:14.515Z,3.70
2019-05-23T20:12:41.685Z,4.93
2019-05-23T20:15:10.040Z,4.30
2019-05-23T20:17:37.121Z,3.53
2019-05-23T20:20:04.890Z,3.90
2019-05-23T20:22:31.957Z,3.40
2019-05-23T20:24:59.127Z,4.63
2019-05-23T20:27:26.197Z,3.23
2019-05-23T20:29:53.266Z,3.43
2019-05-23T20:32:20.807Z,3.73
2019-05-23T20:34:48.008Z,3.25
2019-05-23T20:37:15.196Z,4.10
2019-05-23T20:39:42.966Z,3.20
2019-05-23T20:42:11.754Z,3.73
2019-05-23T20:44:39.181Z,5.63
2019-05-23T20:47:07.641Z,3.70
2019-05-23T20:49:34.892Z,5.83
2019-05-23T20:52:02.944Z,3.60
2019-05-23T20:54:33.376Z,4.10
2019-05-23T20:56:59.161Z,3.67
2019-05-23T20:59:26.536Z,5.20
2019-05-23T21:01:54.406Z,5.10
2019-05-23T21:04:21.668Z,4.10
2019-05-23T21:06:48.829Z,3.77
2019-05-23T21:09:16.302Z,4.17
2019-05-23T21:11:43.669Z,5.43
2019-05-23T21:14:10.829Z,4.40
2019-05-23T21:16:37.880Z,4.80
2019-05-23T21:19:05.294Z,5.87
2019-05-23T21:21:32.452Z,8.43
2019-05-23T21:23:59.496Z,5.53
2019-05-23T21:26:26.664Z,5.83
2019-05-23T21:28:53.819Z,5.60
2019-05-23T21:31:22.638Z,5.50
2019-05-23T21:33:50.888Z,5.83
2019-05-23T21:36:18.056Z,4.27
2019-05-23T21:38:45.106Z,4.73
2019-05-23T21:41:12.173Z,3.90
2019-05-23T21:43:39.427Z,4.27
2019-05-23T21:46:06.993Z,6.37
2019-05-23T21:48:34.049Z,3.80
2019-05-23T21:51:01.533Z,4.70
2019-05-23T21:53:28.692Z,4.57
2019-05-23T21:55:55.753Z,4.20
2019-05-23T21:58:22.934Z,3.73
2019-05-23T22:01:24.644Z,5.07
2019-05-23T22:03:58.111Z,4.87
2019-05-23T22:06:27.924Z,4.70
2019-05-23T22:08:55.888Z,6.57
2019-05-23T22:11:23.253Z,6.43
2019-05-23T22:13:50.349Z,6.73
2019-05-23T22:16:17.600Z,5.23
2019-05-23T22:18:45.261Z,4.50
2019-05-23T22:21:13.256Z,4.63
2019-05-23T22:23:40.417Z,5.17
2019-05-23T22:26:07.563Z,4.97
2019-05-23T22:28:34.922Z,4.83
2019-05-23T22:31:02.073Z,5.57
2019-05-23T22:33:31.332Z,4.80
2019-05-23T22:35:59.458Z,4.90
2019-05-23T22:38:26.921Z,5.63
2019-05-23T22:40:53.986Z,4.70
2019-05-23T22:43:21.562Z,4.80
2019-05-23T22:45:49.016Z,5.40
2019-05-23T22:48:17.152Z,5.53
2019-05-23T22:50:44.303Z,7.63
2019-05-23T22:53:11.373Z,6.67
2019-05-23T22:55:38.449Z,6.23
2019-05-23T22:58:05.719Z,5.73
2019-05-23T23:00:34.799Z,5.90
2019-05-23T23:03:01.856Z,5.87
2019-05-23T23:05:29.008Z,6.10
2019-05-23T23:07:56.154Z,5.80
2019-05-23T23:10:23.824Z,6.90
2019-05-23T23:12:50.880Z,8.60
2019-05-23T23:15:18.173Z,5.80
2019-05-23T23:17:45.238Z,6.30
2019-05-23T23:20:12.597Z,6.40
2019-05-23T23:22:39.657Z,6.13
2019-05-23T23:25:07.076Z,6.53
2019-05-23T23:27:34.647Z,7.37
2019-05-23T23:30:02.022Z,6.17
2019-05-23T23:32:29.068Z,6.17
2019-05-23T23:34:56.142Z,6.70
2019-05-23T23:37:23.656Z,5.83
2019-05-23T23:39:50.812Z,7.50
2019-05-23T23:42:18.062Z,6.90
2019-05-23T23:44:44.883Z,7.13
2019-05-23T23:47:30.340Z,7.23
2019-05-23T23:50:15.829Z,7.00
2019-05-23T23:53:01.233Z,7.60
2019-05-23T23:55:46.548Z,7.27
2019-05-23T23:58:13.275Z,6.90
